Aérodrome :
LOGIN :

S'inscrire | Disclaimer

   EN    FR    IT 

 










Légende :    VFR   VFR Marginal   IFR   IFR Intensif   IFR Très Intensif
Visi : 
Plafond : 
>= 8 km
>= 3000ft
5 à 8 km
1000 à 3000 ft
1500m à 5 km
500 à 1000 ft
800 à 1500m
200 à 500 ft
< 800m
< 200 ft
Symboles :   Orages  Brouillard  Fortes neiges  Fortes précipitations  Vent > 20 kt
SIGMETs :   Divers  Orages  Givrage  Turbulence  Onde Orograph.  Cendres Volcan.







- Altitude de l'aérodrome : 7 ft
- Code IATA : POW


LJPZ - Portoroz

DERNIER METAR :
  • 121330Z 13004KT 9999 FEW035 BKN100 12/10 Q1010

METARs EXPIRÉS :
  • 121300Z 13004KT 9999 SCT030 SCT040 BKN080 12/10 Q1010
  • 121230Z 12004KT 9999 SCT027 BKN080 13/10 Q1010
  • 121200Z VRB02KT 9999 SCT030 BKN080 13/10 Q1010
  • 121130Z 19004KT 120V260 9999 SCT030 BKN080 13/10 Q1010
  • 121100Z 20006KT 160V250 9999 SCT030 BKN080 13/10 Q1010

TAF TAF LJPZ
Valide du 12 à 12h jusqu'au 12 à 21h UTC


121100Z 1212/1221 18010KT 9999 SCT035 OVC070
TEMPO 1212/1221 -RA BKN035
Pas de NOTAMs connus pour ce terrain.
1 SIGMET publié pour la FIR Ljubljana (LJLA) :
 
Turbulence forte
LJLA SIGMET 7 VALID 121100/121400 LJLJ
LJLA LJUBLJANA FIR SEV TURB FCST W OF LINE N4641 E01545 - N4546 E01518 3000/9000FT STNR WKN=



MET'MAP, la Météo Aéronautique d'un coup d'oeil ! - Copyright ORBIFLY Décembre 2007 - Disclaimer

ORBIFLY MET'MAP TEAM :

Programmation & Développement : Alexandra Zaïnal
Conception & Développement : Baudouin d'Aumeries
Co-Programmation & Développement : Marc-Olivier Méhu
Soutien technique & logistique : Manuel Goepfert

Contact : metmap@orbifly.com




SOURCES & CREDITS :

   NOAA